Time;durP1;ratioP1;P1;durP2;ratioP2;P2;SDS_P1;SDS_P2;PMS_P1;PMS_P2;Temp;Humidity;BMP_temperature;BMP_pressure;BME280_temperature;BME280_humidity;BME280_pressure;Samples;Min_cycle;Max_cycle;Signal;HPM_P1;HPM_P2
2023/03/13 00:00:33;;;;;;;53.75;8.90;;;;;;;8.57;100.00;100078.78;5070610;28;20140;-60
2023/03/13 00:02:59;;;;;;;55.88;9.13;;;;;;;8.58;100.00;100069.69;5070709;28;20112;-60
2023/03/13 00:05:24;;;;;;;54.20;8.82;;;;;;;8.59;100.00;100062.50;5069510;28;20111;-59
2023/03/13 00:07:49;;;;;;;47.88;11.30;;;;;;;8.57;100.00;100063.50;5069878;28;20036;-62
2023/03/13 00:10:15;;;;;;;55.35;12.25;;;;;;;8.61;100.00;100055.06;5070386;28;20407;-60
2023/03/13 00:12:40;;;;;;;56.28;13.13;;;;;;;8.64;100.00;100052.88;5070562;28;20017;-55
2023/03/13 00:15:06;;;;;;;62.20;15.05;;;;;;;8.66;100.00;100044.63;5070976;28;20064;-63
2023/03/13 00:17:32;;;;;;;56.80;15.85;;;;;;;8.70;100.00;100027.97;5073227;28;20085;-53
2023/03/13 00:19:57;;;;;;;59.13;16.55;;;;;;;8.71;100.00;100023.41;5073734;28;20049;-54
2023/03/13 00:22:23;;;;;;;60.60;16.95;;;;;;;8.73;100.00;100018.69;5074104;28;20033;-54
2023/03/13 00:24:48;;;;;;;69.45;19.95;;;;;;;8.76;100.00;100012.94;5074324;28;20086;-57
2023/03/13 00:27:14;;;;;;;57.70;18.17;;;;;;;8.78;100.00;100000.19;5074084;28;20086;-55
2023/03/13 00:29:39;;;;;;;51.63;18.92;;;;;;;8.80;100.00;100006.19;5073713;28;20127;-58
2023/03/13 00:32:05;;;;;;;58.67;18.38;;;;;;;8.78;100.00;100000.19;5072291;28;20074;-56
2023/03/13 00:34:30;;;;;;;50.70;19.42;;;;;;;8.77;100.00;99994.00;5074068;28;20029;-53
2023/03/13 00:36:55;;;;;;;65.22;20.92;;;;;;;8.79;100.00;99994.63;5074009;28;20075;-58
2023/03/13 00:39:21;;;;;;;60.50;20.65;;;;;;;8.81;100.00;99996.28;5073600;28;20505;-54
2023/03/13 00:41:47;;;;;;;59.03;22.00;;;;;;;8.82;100.00;99982.69;5072861;28;20032;-57
2023/03/13 00:44:12;;;;;;;53.85;19.88;;;;;;;8.83;100.00;99970.94;5073939;28;20025;-55
2023/03/13 00:46:37;;;;;;;50.42;19.65;;;;;;;8.86;100.00;99970.53;5073655;28;20501;-62
2023/03/13 00:49:03;;;;;;;49.55;18.77;;;;;;;8.87;100.00;99971.38;5073358;28;20048;-57
2023/03/13 00:51:29;;;;;;;50.08;17.17;;;;;;;8.89;100.00;99948.69;5067562;28;20090;-54
2023/03/13 00:53:55;;;;;;;48.53;17.42;;;;;;;8.91;100.00;99945.81;5053797;28;20078;-58
2023/03/13 00:56:21;;;;;;;51.47;18.08;;;;;;;8.90;100.00;99950.38;5060184;28;20112;-56
2023/03/13 00:58:47;;;;;;;57.42;17.75;;;;;;;8.92;100.00;99945.59;5066598;28;20025;-53
2023/03/13 01:01:15;;;;;;;53.72;16.55;;;;;;;8.94;100.00;99935.50;5073153;28;20037;-57
2023/03/13 01:03:43;;;;;;;51.90;18.13;;;;;;;8.99;100.00;99914.28;5073101;28;20430;-55
2023/03/13 01:06:11;;;;;;;57.28;17.77;;;;;;;8.99;100.00;99932.25;5071188;28;20085;-57
2023/03/13 01:08:36;;;;;;;;;;;;;;;9.02;100.00;99924.63;5071658;28;20069;-55
2023/03/13 01:11:07;;;;;;;44.15;17.48;;;;;;;9.05;100.00;99903.81;5071341;28;19913;-57
2023/03/13 01:13:33;;;;;;;50.20;16.70;;;;;;;9.08;100.00;99906.09;5073300;28;20682;-55
2023/03/13 01:16:07;;;;;;;41.28;17.48;;;;;;;9.10;100.00;99898.69;5073187;28;20028;-55
2023/03/13 01:18:34;;;;;;;48.47;17.58;;;;;;;9.11;100.00;99898.50;5071997;28;20041;-53
2023/03/13 01:20:59;;;;;;;54.47;17.98;;;;;;;9.12;100.00;99907.38;5070059;28;20048;-53
2023/03/13 01:23:25;;;;;;;44.25;16.77;;;;;;;9.16;100.00;99890.69;5072903;28;20043;-53
2023/03/13 01:25:50;;;;;;;53.67;18.23;;;;;;;9.18;100.00;99895.84;5072703;28;20021;-52
2023/03/13 01:28:16;;;;;;;51.20;18.67;;;;;;;9.18;100.00;99887.78;5071449;28;20501;-50
2023/03/13 01:30:41;;;;;;;57.80;18.90;;;;;;;9.19;100.00;99897.53;5072842;28;20457;-56
2023/03/13 01:33:06;;;;;;;56.15;16.27;;;;;;;9.23;100.00;99874.63;5072273;28;20039;-50
2023/03/13 01:35:32;;;;;;;53.03;18.38;;;;;;;9.21;100.00;99873.97;5072497;28;20024;-50
2023/03/13 01:37:57;;;;;;;55.83;17.65;;;;;;;9.22;100.00;99867.59;5072285;28;20017;-50
2023/03/13 01:40:23;;;;;;;53.08;17.80;;;;;;;9.24;100.00;99849.41;5060105;28;20040;-51
2023/03/13 01:42:49;;;;;;;64.78;16.92;;;;;;;9.25;100.00;99844.91;5052705;28;20033;-50
2023/03/13 01:45:52;;;;;;;49.72;16.45;;;;;;;9.29;100.00;99843.47;5052812;28;20364;-52
2023/03/13 01:48:19;;;;;;;50.97;17.63;;;;;;;9.30;100.00;99848.66;5066963;28;20043;-51
2023/03/13 01:50:44;;;;;;;51.17;17.58;;;;;;;9.31;100.00;99826.13;5056775;28;20059;-54
2023/03/13 01:53:10;;;;;;;63.60;18.50;;;;;;;9.30;100.00;99820.97;5057854;28;20036;-52
2023/03/13 01:55:35;;;;;;;57.60;18.58;;;;;;;9.33;100.00;99820.56;5072083;28;20032;-55
2023/03/13 01:58:00;;;;;;;58.15;17.33;;;;;;;9.37;100.00;99811.91;5070725;28;20033;-53
2023/03/13 02:00:29;;;;;;;54.20;18.05;;;;;;;9.40;100.00;99827.63;5072184;28;20042;-54
2023/03/13 02:02:57;;;;;;;59.58;18.92;;;;;;;9.43;100.00;99813.81;5069116;28;20110;-53
2023/03/13 02:05:25;;;;;;;49.50;18.52;;;;;;;9.47;100.00;99808.03;5065009;28;20103;-52
2023/03/13 02:08:18;;;;;;;59.72;19.42;;;;;;;9.52;100.00;99797.50;5070692;28;20111;-50
2023/03/13 02:10:54;;;;;;;48.60;19.00;;;;;;;9.57;100.00;99803.09;5069085;28;20173;-50
2023/03/13 02:13:19;;;;;;;47.33;19.45;;;;;;;9.60;100.00;99818.81;5065120;28;20452;-55
2023/03/13 02:15:46;;;;;;;56.63;19.77;;;;;;;9.66;100.00;99788.47;5055553;28;20029;-51
2023/03/13 02:18:12;;;;;;;63.88;21.67;;;;;;;9.76;100.00;99796.97;5071821;28;20390;-54
2023/03/13 02:20:38;;;;;;;52.47;20.77;;;;;;;9.77;100.00;99793.25;5058150;28;20044;-55
2023/03/13 02:23:12;;;;;;;43.65;18.95;;;;;;;9.79;100.00;99787.66;5069730;28;20351;-53
2023/03/13 02:25:44;;;;;;;55.40;20.55;;;;;;;9.84;100.00;99775.28;5071903;28;20108;-55
2023/03/13 02:28:24;;;;;;;44.40;22.60;;;;;;;9.93;100.00;99783.19;5070594;28;20032;-56
2023/03/13 02:30:53;;;;;;;49.05;20.67;;;;;;;9.94;100.00;99788.34;5057782;28;20127;-51
2023/03/13 02:33:20;;;;;;;51.50;21.33;;;;;;;9.93;100.00;99780.50;5071132;28;20468;-50
2023/03/13 02:35:46;;;;;;;55.78;20.80;;;;;;;9.98;100.00;99780.69;5070461;28;20028;-49
2023/03/13 02:38:16;;;;;;;56.78;21.15;;;;;;;9.97;100.00;99789.78;5071443;28;20034;-50
2023/03/13 02:40:44;;;;;;;41.92;19.83;;;;;;;10.03;100.00;99780.91;5060792;28;20041;-52
2023/03/13 02:43:17;;;;;;;50.50;20.13;;;;;;;10.10;100.00;99797.88;5067142;28;20033;-50
2023/03/13 02:46:03;;;;;;;47.75;17.45;;;;;;;10.15;100.00;99781.97;5050200;28;20080;-50
2023/03/13 02:48:40;;;;;;;42.65;16.00;;;;;;;10.20;100.00;99782.19;5051769;28;20029;-50
2023/03/13 02:51:18;;;;;;;42.80;14.88;;;;;;;10.25;100.00;99771.63;5053451;28;20069;-48
2023/03/13 02:53:45;;;;;;;37.75;13.63;;;;;;;10.25;100.00;99760.88;5065047;28;20044;-49
2023/03/13 02:56:12;;;;;;;42.67;12.65;;;;;;;10.29;100.00;99751.41;5051453;28;20032;-48
2023/03/13 02:58:38;;;;;;;37.80;11.65;;;;;;;10.29;100.00;99746.03;5050189;28;20380;-50
2023/03/13 03:01:06;;;;;;;28.95;10.60;;;;;;;10.35;100.00;99738.13;5060851;28;20573;-50
2023/03/13 03:03:32;;;;;;;;;;;;;;;10.44;100.00;99755.72;5067164;28;20606;-52
2023/03/13 03:05:57;;;;;;;24.83;8.60;;;;;;;10.47;100.00;99741.88;5053928;28;19923;-52
2023/03/13 03:08:23;;;;;;;19.88;8.25;;;;;;;10.54;100.00;99742.69;5071140;28;20419;-50
2023/03/13 03:10:48;;;;;;;26.77;7.88;;;;;;;10.64;100.00;99734.19;5063854;28;20049;-50
2023/03/13 03:13:13;;;;;;;22.75;6.65;;;;;;;10.67;100.00;99729.22;5068622;28;20118;-52
2023/03/13 03:15:39;;;;;;;26.02;7.00;;;;;;;10.67;100.00;99726.53;5061958;28;20113;-51
2023/03/13 03:18:04;;;;;;;25.98;6.80;;;;;;;10.75;100.00;99747.00;5071492;28;20173;-50
2023/03/13 03:20:29;;;;;;;15.10;5.60;;;;;;;10.75;100.00;99722.78;5066764;28;20076;-51
2023/03/13 03:22:55;;;;;;;27.52;6.43;;;;;;;10.75;100.00;99723.59;5070500;28;20025;-52
2023/03/13 03:25:20;;;;;;;23.17;7.20;;;;;;;10.75;100.00;99723.59;5070897;28;20122;-50
2023/03/13 03:27:46;;;;;;;18.40;6.28;;;;;;;10.76;100.00;99727.94;5070971;28;20029;-51
2023/03/13 03:30:12;;;;;;;22.13;7.03;;;;;;;10.74;100.00;99723.81;5070884;28;20068;-52
2023/03/13 03:32:38;;;;;;;13.38;5.82;;;;;;;10.72;100.00;99718.66;5066927;28;20055;-53
2023/03/13 03:35:03;;;;;;;26.30;7.07;;;;;;;10.71;100.00;99713.47;5055750;28;20046;-50
2023/03/13 03:37:29;;;;;;;19.58;6.30;;;;;;;10.69;100.00;99755.91;5050819;28;20037;-51
2023/03/13 03:39:54;;;;;;;23.77;6.10;;;;;;;10.68;100.00;99695.06;5050934;28;20042;-53
2023/03/13 03:42:19;;;;;;;22.55;6.85;;;;;;;10.66;100.00;99692.56;5067870;28;20055;-54
2023/03/13 03:44:45;;;;;;;35.95;8.52;;;;;;;10.66;100.00;99697.94;5070876;28;20029;-52
2023/03/13 03:47:10;;;;;;;33.13;7.70;;;;;;;10.64;100.00;99691.97;5070345;28;20023;-51
2023/03/13 03:49:35;;;;;;;19.52;7.63;;;;;;;10.68;100.00;99695.06;5070941;28;20167;-50
2023/03/13 03:52:01;;;;;;;24.00;7.60;;;;;;;10.71;100.00;99714.28;5072141;28;20052;-49
2023/03/13 03:54:26;;;;;;;23.25;6.97;;;;;;;10.67;100.00;99710.38;5066340;28;20044;-50
2023/03/13 03:56:51;;;;;;;23.60;7.68;;;;;;;10.68;100.00;99689.69;5074340;28;20111;-50
2023/03/13 03:59:17;;;;;;;31.10;8.80;;;;;;;10.67;100.00;99685.34;5074657;28;20128;-51
2023/03/13 04:01:43;;;;;;;23.80;8.40;;;;;;;10.66;100.00;99687.19;5074144;28;20056;-52
2023/03/13 04:04:08;;;;;;;24.73;9.25;;;;;;;10.66;100.00;99700.63;5074422;28;20040;-55
2023/03/13 04:06:34;;;;;;;23.58;9.23;;;;;;;10.67;100.00;99705.00;5074386;28;20012;-54
2023/03/13 04:08:59;;;;;;;33.65;9.25;;;;;;;10.68;100.00;99695.06;5074503;28;20064;-51
2023/03/13 04:11:24;;;;;;;20.80;9.27;;;;;;;10.66;100.00;99686.38;5073893;28;20031;-54
2023/03/13 04:13:50;;;;;;;27.70;9.50;;;;;;;10.65;100.00;99701.69;5074365;28;20063;-52
2023/03/13 04:16:15;;;;;;;22.30;9.20;;;;;;;10.61;100.00;99689.72;5074243;28;20526;-53
2023/03/13 04:18:40;;;;;;;24.73;9.15;;;;;;;10.66;100.00;99700.63;5074923;28;20371;-58
2023/03/13 04:21:06;;;;;;;27.00;8.73;;;;;;;10.69;100.00;99686.78;5073583;28;20501;-53
2023/03/13 04:23:32;;;;;;;30.63;8.68;;;;;;;10.74;100.00;99667.28;5073990;28;20457;-52
2023/03/13 04:25:57;;;;;;;26.35;10.07;;;;;;;10.76;100.00;99684.88;5074152;28;20074;-50
2023/03/13 04:28:22;;;;;;;30.25;8.88;;;;;;;10.75;100.00;99659.03;5074138;28;20447;-51
2023/03/13 04:30:48;;;;;;;41.67;9.77;;;;;;;10.80;100.00;99654.88;5072203;28;20400;-50
2023/03/13 04:33:13;;;;;;;26.55;9.18;;;;;;;10.79;100.00;99653.22;5073230;28;20025;-50
2023/03/13 04:35:38;;;;;;;26.38;9.13;;;;;;;10.85;100.00;99646.97;5073271;28;20035;-49
2023/03/13 04:38:04;;;;;;;23.50;8.27;;;;;;;10.85;100.00;99652.34;5074092;28;20493;-49
2023/03/13 04:40:29;;;;;;;30.95;8.27;;;;;;;10.86;100.00;99648.63;5070956;28;20390;-49
2023/03/13 04:42:54;;;;;;;29.75;8.23;;;;;;;10.87;100.00;99652.97;5067098;28;20471;-50
2023/03/13 04:45:20;;;;;;;24.15;7.20;;;;;;;10.86;100.00;99643.25;5073339;28;20422;-50
2023/03/13 04:47:46;;;;;;;29.38;8.00;;;;;;;10.90;100.00;99650.69;5073659;28;20042;-50
2023/03/13 04:50:11;;;;;;;38.17;7.63;;;;;;;10.94;100.00;99640.31;5073622;28;20032;-49
2023/03/13 04:52:36;;;;;;;30.15;6.97;;;;;;;10.93;100.00;99611.75;5073064;28;20033;-50
2023/03/13 04:55:02;;;;;;;24.48;6.95;;;;;;;10.95;100.00;99625.81;5073424;28;20435;-51
2023/03/13 04:57:27;;;;;;;27.60;7.32;;;;;;;10.94;100.00;99629.56;5073580;28;20037;-51
2023/03/13 04:59:53;;;;;;;26.65;5.88;;;;;;;10.95;100.00;99593.50;5057569;28;20095;-50
2023/03/13 05:02:18;;;;;;;27.27;6.60;;;;;;;10.98;100.00;99614.63;5070119;28;20028;-51
2023/03/13 05:04:43;;;;;;;25.67;6.00;;;;;;;11.03;100.00;99590.56;5066982;28;20029;-50
2023/03/13 05:07:09;;;;;;;16.15;5.30;;;;;;;11.06;100.00;99590.16;5053329;28;20080;-49
2023/03/13 05:09:34;;;;;;;17.60;4.53;;;;;;;11.10;100.00;99580.59;5053369;28;20025;-49
2023/03/13 05:11:59;;;;;;;21.52;4.88;;;;;;;11.12;100.00;99562.34;5066304;28;20059;-53
2023/03/13 05:14:25;;;;;;;28.00;5.10;;;;;;;11.15;100.00;99555.72;5072073;28;20490;-51
2023/03/13 05:16:50;;;;;;;29.05;5.00;;;;;;;11.15;100.00;99548.44;5071513;28;20406;-51
2023/03/13 05:19:15;;;;;;;20.48;4.30;;;;;;;11.24;100.00;99532.03;5071979;28;20425;-50
2023/03/13 05:21:41;;;;;;;22.95;5.22;;;;;;;11.24;100.00;99532.84;5075103;28;20067;-50
2023/03/13 05:24:06;;;;;;;25.35;4.60;;;;;;;11.26;100.00;99514.59;5070991;28;20032;-49
2023/03/13 05:26:32;;;;;;;29.30;5.78;;;;;;;11.24;100.00;99529.31;5084846;28;20059;-50
2023/03/13 05:28:57;;;;;;;33.72;5.72;;;;;;;11.29;100.00;99524.13;5074466;28;20027;-49
2023/03/13 05:31:22;;;;;;;26.05;5.88;;;;;;;11.33;100.00;99514.56;5051919;28;20108;-50
2023/03/13 05:33:48;;;;;;;26.90;4.68;;;;;;;11.36;100.00;99519.50;5059534;28;20032;-51
2023/03/13 05:36:13;;;;;;;28.63;5.05;;;;;;;11.36;100.00;99506.03;5071079;28;20060;-49
2023/03/13 05:38:38;;;;;;;24.40;4.45;;;;;;;11.39;100.00;99508.28;5071182;28;20547;-49
2023/03/13 05:41:04;;;;;;;29.95;4.68;;;;;;;11.47;100.00;99509.88;5068399;28;20024;-50
2023/03/13 05:43:29;;;;;;;28.20;4.53;;;;;;;11.52;100.00;99499.28;5064053;28;20047;-50
2023/03/13 05:45:55;;;;;;;24.00;5.10;;;;;;;11.56;100.00;99528.25;5070900;28;20537;-49
2023/03/13 05:48:20;;;;;;;23.17;4.70;;;;;;;11.53;100.00;99500.91;5070750;28;20048;-52
2023/03/13 05:50:46;;;;;;;21.30;4.22;;;;;;;11.56;100.00;99498.63;5071100;28;20059;-50
2023/03/13 05:53:11;;;;;;;21.45;5.38;;;;;;;11.54;100.00;99484.53;5069956;28;20031;-50
2023/03/13 05:55:36;;;;;;;19.90;4.13;;;;;;;11.55;100.00;99518.50;5070434;28;20032;-51
2023/03/13 05:58:02;;;;;;;30.65;5.32;;;;;;;11.50;100.00;99512.94;5070670;28;20081;-52
2023/03/13 06:00:27;;;;;;;23.58;4.30;;;;;;;11.46;100.00;99509.06;5070275;28;20038;-51
2023/03/13 06:02:52;;;;;;;37.50;5.53;;;;;;;11.44;100.00;99516.53;5070183;28;20021;-51
2023/03/13 06:05:18;;;;;;;34.70;5.68;;;;;;;11.44;100.00;99535.41;5070272;28;20031;-51
2023/03/13 06:07:43;;;;;;;30.60;4.88;;;;;;;11.36;100.00;99531.09;5069544;28;20036;-50
2023/03/13 06:10:10;;;;;;;23.70;4.95;;;;;;;11.28;100.00;99533.25;5070276;28;20459;-50
2023/03/13 06:12:35;;;;;;;24.60;5.18;;;;;;;11.14;100.00;99549.50;5068497;28;20482;-52
2023/03/13 06:15:00;;;;;;;21.55;4.60;;;;;;;11.01;100.00;99533.44;5069420;28;20060;-51
2023/03/13 06:17:26;;;;;;;28.55;6.22;;;;;;;10.87;100.00;99559.56;5070240;28;20040;-52
2023/03/13 06:19:51;;;;;;;33.95;6.72;;;;;;;10.78;100.00;99555.50;5068899;28;20253;-50
2023/03/13 06:22:17;;;;;;;32.55;5.97;;;;;;;10.72;100.00;99600.25;5072319;28;20046;-50
2023/03/13 06:24:43;;;;;;;24.77;7.15;;;;;;;10.68;100.00;99566.72;5070110;28;20126;-53
2023/03/13 06:27:09;;;;;;;42.88;6.57;;;;;;;10.67;100.00;99583.91;5068801;28;20044;-53
2023/03/13 06:29:35;;;;;;;32.83;7.22;;;;;;;10.66;100.00;99595.69;5048204;28;20055;-53
2023/03/13 06:32:00;;;;;;;35.20;6.93;;;;;;;10.66;100.00;99568.78;5039887;28;20033;-50
2023/03/13 06:34:25;;;;;;;25.80;6.25;;;;;;;10.65;100.00;99571.72;5063339;28;20124;-50
2023/03/13 06:36:51;;;;;;;23.92;6.43;;;;;;;10.64;100.00;99580.84;5068341;28;20090;-58
2023/03/13 06:39:16;;;;;;;29.50;7.55;;;;;;;10.65;100.00;99602.13;5069136;28;20039;-58
2023/03/13 06:41:41;;;;;;;33.08;6.13;;;;;;;10.58;100.00;99577.09;5070285;28;20032;-58
2023/03/13 06:44:07;;;;;;;30.10;6.57;;;;;;;10.57;100.00;99580.03;5066731;28;20013;-59
2023/03/13 06:46:32;;;;;;;30.63;7.57;;;;;;;10.53;100.00;99580.47;5068434;28;20451;-56
2023/03/13 06:48:58;;;;;;;29.38;7.55;;;;;;;10.62;100.00;99581.03;5069843;28;20024;-58
2023/03/13 06:51:25;;;;;;;27.70;6.85;;;;;;;10.71;100.00;99598.56;5069351;28;20115;-55
2023/03/13 06:53:51;;;;;;;37.55;7.38;;;;;;;10.71;100.00;99614.72;5068638;28;20111;-51
2023/03/13 06:56:16;;;;;;;23.33;6.07;;;;;;;10.73;100.00;99574.16;5068586;28;20535;-49
2023/03/13 06:58:42;;;;;;;29.33;6.13;;;;;;;10.76;100.00;99608.72;5068959;28;20028;-52
2023/03/13 07:01:12;;;;;;;32.47;6.88;;;;;;;10.77;100.00;99602.31;5061665;28;20099;-50
2023/03/13 07:03:38;;;;;;;28.23;5.80;;;;;;;10.75;100.00;99556.75;5068096;28;20071;-51
2023/03/13 07:06:04;;;;;;;23.13;5.80;;;;;;;10.77;100.00;99578.91;5068496;28;20059;-52
2023/03/13 07:08:31;;;;;;;23.67;6.20;;;;;;;10.79;100.00;99586.75;5067811;28;20511;-50
2023/03/13 07:11:07;;;;;;;17.33;5.97;;;;;;;10.79;100.00;99580.53;5069298;28;20024;-51
2023/03/13 07:13:32;;;;;;;22.52;5.63;;;;;;;10.77;100.00;99570.84;5068310;28;20055;-52
2023/03/13 07:16:06;;;;;;;25.17;5.88;;;;;;;10.77;100.00;99560.06;5069256;28;20067;-54
2023/03/13 07:18:32;;;;;;;27.55;6.18;;;;;;;10.76;100.00;99589.88;5068862;28;20033;-51
2023/03/13 07:20:59;;;;;;;29.95;6.63;;;;;;;10.80;100.00;99582.22;5070112;28;20093;-52
2023/03/13 07:23:26;;;;;;;33.47;7.07;;;;;;;10.86;100.00;99559.81;5069408;28;20052;-51
2023/03/13 07:25:57;;;;;;;24.33;5.78;;;;;;;10.92;100.00;99585.88;5072050;28;21086;-53
2023/03/13 07:28:23;;;;;;;21.10;5.53;;;;;;;10.95;100.00;99562.06;5070327;28;20032;-50
2023/03/13 07:30:48;;;;;;;27.45;5.53;;;;;;;10.98;100.00;99582.31;5072827;28;20040;-50
2023/03/13 07:33:15;;;;;;;26.73;5.40;;;;;;;11.00;100.00;99572.16;5071912;28;20020;-50
2023/03/13 07:35:40;;;;;;;28.85;5.28;;;;;;;11.09;100.00;99552.03;5073832;28;20503;-50
2023/03/13 07:38:05;;;;;;;27.60;5.10;;;;;;;11.13;100.00;99539.75;5085964;28;20032;-52
2023/03/13 07:40:31;;;;;;;27.63;5.70;;;;;;;11.19;100.00;99552.38;5073502;28;20020;-50
2023/03/13 07:42:56;;;;;;;19.33;4.65;;;;;;;11.24;100.00;99515.88;5072931;28;20233;-52
2023/03/13 07:45:21;;;;;;;29.20;5.68;;;;;;;11.27;100.00;99528.88;5073305;28;20029;-50
2023/03/13 07:47:47;;;;;;;20.65;4.18;;;;;;;11.30;100.00;99525.78;5073056;28;20050;-52
2023/03/13 07:50:12;;;;;;;19.77;4.10;;;;;;;11.34;100.00;99527.78;5073096;28;20104;-51
2023/03/13 07:52:37;;;;;;;19.83;4.30;;;;;;;11.38;100.00;99530.91;5072868;28;20048;-49
2023/03/13 07:55:03;;;;;;;23.38;4.20;;;;;;;11.43;100.00;99520.28;5072519;28;20090;-52
2023/03/13 07:57:29;;;;;;;21.13;4.93;;;;;;;11.46;100.00;99521.72;5072442;28;20035;-52
2023/03/13 07:59:54;;;;;;;17.38;3.80;;;;;;;11.45;100.00;99506.59;5074358;28;20091;-51
2023/03/13 08:02:20;;;;;;;11.13;3.13;;;;;;;11.45;100.00;99510.09;5080140;28;20033;-52
2023/03/13 08:04:45;;;;;;;16.98;3.70;;;;;;;11.49;100.00;99518.56;5072347;28;20036;-49
2023/03/13 08:07:11;;;;;;;12.10;3.58;;;;;;;11.52;100.00;99502.78;5072702;28;20043;-50
2023/03/13 08:09:37;;;;;;;21.25;3.60;;;;;;;11.50;100.00;99504.88;5077937;28;20350;-50
2023/03/13 08:12:02;;;;;;;21.42;3.60;;;;;;;11.47;100.00;99501.81;5092686;28;20119;-50
2023/03/13 08:14:28;;;;;;;13.70;3.25;;;;;;;11.46;100.00;99498.28;5070371;28;20085;-52
2023/03/13 08:16:53;;;;;;;12.05;2.75;;;;;;;11.50;100.00;99502.19;5086398;28;20481;-49
2023/03/13 08:19:18;;;;;;;26.17;3.47;;;;;;;11.52;100.00;99508.16;5089641;28;20044;-49
2023/03/13 08:21:44;;;;;;;18.15;3.08;;;;;;;11.57;100.00;99537.97;5072544;28;20035;-51
2023/03/13 08:24:11;;;;;;;18.80;2.70;;;;;;;11.67;100.00;99475.50;5070717;28;20442;-52
2023/03/13 08:26:38;;;;;;;18.73;3.17;;;;;;;11.73;100.00;99498.03;5071783;28;20028;-53
2023/03/13 08:29:07;;;;;;;23.23;2.78;;;;;;;11.81;100.00;99489.66;5064350;28;20024;-51
2023/03/13 08:31:37;;;;;;;26.38;4.10;;;;;;;11.85;100.00;99464.75;5071720;28;20025;-54
2023/03/13 08:34:03;;;;;;;22.33;3.42;;;;;;;11.97;100.00;99470.22;5071470;28;20126;-53
2023/03/13 08:36:33;;;;;;;19.58;2.53;;;;;;;12.32;100.00;99450.72;5071734;28;20134;-50
2023/03/13 08:39:00;;;;;;;14.20;2.70;;;;;;;12.87;100.00;99437.06;5071918;28;20020;-51
2023/03/13 08:41:28;;;;;;;14.57;2.60;;;;;;;13.31;100.00;99434.94;5071946;28;20047;-50
2023/03/13 08:43:57;;;;;;;17.08;2.78;;;;;;;13.89;100.00;99425.13;5070759;28;20016;-51
2023/03/13 08:46:22;;;;;;;20.98;3.28;;;;;;;14.02;100.00;99413.22;5081302;28;20267;-50
2023/03/13 08:48:50;;;;;;;17.52;2.90;;;;;;;13.96;100.00;99430.44;5085669;28;20028;-54
2023/03/13 08:51:15;;;;;;;27.25;3.20;;;;;;;13.59;100.00;99418.00;5069005;28;20020;-51
2023/03/13 08:53:42;;;;;;;30.95;3.08;;;;;;;13.46;100.00;99403.94;5070044;28;20417;-50
2023/03/13 08:56:09;;;;;;;19.55;2.80;;;;;;;13.43;100.00;99398.97;5070522;28;20453;-51
2023/03/13 08:58:34;;;;;;;22.73;3.08;;;;;;;13.24;100.00;99423.38;5071807;28;20020;-50
2023/03/13 09:01:04;;;;;;;28.40;3.50;;;;;;;13.23;100.00;99424.44;5070112;28;20427;-50
2023/03/13 09:03:29;;;;;;;28.40;3.83;;;;;;;13.18;100.00;99379.22;5071371;28;20086;-51
2023/03/13 09:05:56;;;;;;;25.23;3.35;;;;;;;13.09;100.00;99388.75;5071596;28;20028;-50
2023/03/13 09:08:22;;;;;;;36.70;3.53;;;;;;;12.98;100.00;99377.91;5071616;28;20105;-51
2023/03/13 09:10:47;;;;;;;30.98;3.95;;;;;;;12.94;100.00;99380.25;5071294;28;20119;-50
2023/03/13 09:13:13;;;;;;;39.58;3.53;;;;;;;12.87;100.00;99396.56;5071570;28;20032;-50
2023/03/13 09:15:38;;;;;;;35.42;4.40;;;;;;;12.76;100.00;99375.78;5071795;28;20082;-51
2023/03/13 09:18:05;;;;;;;28.75;3.28;;;;;;;12.73;100.00;99390.56;5071398;28;20563;-48
2023/03/13 09:20:30;;;;;;;29.80;3.80;;;;;;;12.66;100.00;99380.91;5071023;28;20483;-51
2023/03/13 09:22:56;;;;;;;28.92;3.72;;;;;;;12.62;100.00;99394.06;5075854;28;20028;-49
2023/03/13 09:25:21;;;;;;;26.77;4.22;;;;;;;12.65;100.00;99384.69;5071629;28;20028;-52
2023/03/13 09:27:46;;;;;;;34.80;4.45;;;;;;;12.79;100.00;99372.59;5071382;28;20056;-50
2023/03/13 09:30:12;;;;;;;26.60;3.30;;;;;;;12.91;100.00;99365.34;5069220;28;20033;-50
2023/03/13 09:32:37;;;;;;;21.00;3.15;;;;;;;13.12;100.00;99346.94;5070799;28;20021;-49
2023/03/13 09:35:03;;;;;;;27.05;3.35;;;;;;;13.20;100.00;99361.97;5071165;28;20032;-50
2023/03/13 09:37:28;;;;;;;18.92;2.80;;;;;;;13.31;100.00;99342.25;5068295;28;20063;-49
2023/03/13 09:39:53;;;;;;;19.13;2.65;;;;;;;13.34;100.00;99339.06;5071132;28;20032;-49
2023/03/13 09:42:48;;;;;;;19.80;2.88;;;;;;;13.34;100.00;99349.88;5071084;28;20474;-50
2023/03/13 09:45:32;;;;;;;15.57;2.80;;;;;;;13.41;100.00;99345.19;5068716;28;20028;-51
2023/03/13 09:48:03;;;;;;;12.80;2.00;;;;;;;13.54;100.00;99341.41;5070775;28;20710;-52
2023/03/13 09:50:35;;;;;;;13.52;2.30;;;;;;;13.49;100.00;99334.00;5070860;28;20040;-50
2023/03/13 09:53:30;;;;;;;12.25;2.90;;;;;;;13.45;100.00;99337.41;5069507;28;20020;-50
2023/03/13 09:55:56;;;;;;;13.93;2.40;;;;;;;13.44;100.00;99330.38;5069568;28;20127;-50
2023/03/13 09:58:23;;;;;;;20.23;2.72;;;;;;;13.46;100.00;99336.38;5069722;28;20058;-50
2023/03/13 10:01:16;;;;;;;14.82;2.05;;;;;;;13.49;100.00;99347.50;5068456;28;20040;-50
2023/03/13 10:03:50;;;;;;;24.08;2.40;;;;;;;13.43;100.00;99328.72;5064773;28;20116;-50
2023/03/13 10:06:18;;;;;;;13.43;2.22;;;;;;;13.58;100.00;99331.75;5069755;28;20032;-51
2023/03/13 10:08:44;;;;;;;;;;;;;;;13.74;100.00;99335.56;5070457;28;20039;-51
2023/03/13 10:11:34;;;;;;;22.90;2.92;;;;;;;13.88;100.00;99325.31;5070321;28;19912;-50
2023/03/13 10:14:20;;;;;;;23.48;2.78;;;;;;;13.85;100.00;99332.03;5070928;28;20051;-50
2023/03/13 10:16:54;;;;;;;21.40;3.10;;;;;;;13.80;100.00;99327.34;5068832;28;20044;-51
2023/03/13 10:19:27;;;;;;;37.67;4.40;;;;;;;13.84;100.00;99312.25;5068057;28;20045;-50
2023/03/13 10:21:54;;;;;;;15.63;3.00;;;;;;;13.86;100.00;99322.84;5068917;28;20119;-50
2023/03/13 10:24:40;;;;;;;27.13;2.90;;;;;;;13.86;100.00;99313.94;5069641;28;20138;-51
2023/03/13 10:27:08;;;;;;;27.88;4.22;;;;;;;13.73;100.00;99329.34;5072739;28;20044;-52
2023/03/13 10:29:33;;;;;;;40.35;4.53;;;;;;;13.74;100.00;99330.16;5069461;28;20838;-52
2023/03/13 10:32:03;;;;;;;35.30;4.18;;;;;;;13.87;100.00;99291.22;5069610;28;20115;-51
2023/03/13 10:34:56;;;;;;;34.92;3.53;;;;;;;13.79;100.00;99322.97;5062624;28;20376;-49
2023/03/13 10:37:25;;;;;;;39.13;4.30;;;;;;;13.87;100.00;99345.31;5051117;28;20033;-50
2023/03/13 10:39:51;;;;;;;30.27;4.25;;;;;;;13.89;100.00;99305.31;5067618;28;20032;-49
2023/03/13 10:42:28;;;;;;;39.33;4.38;;;;;;;14.11;100.00;99311.69;5070196;28;20032;-50
2023/03/13 10:44:59;;;;;;;33.30;3.65;;;;;;;14.14;100.00;99307.66;5068956;28;20378;-52
2023/03/13 10:47:24;;;;;;;37.20;3.58;;;;;;;13.93;100.00;99306.47;5082678;28;20119;-51
2023/03/13 10:49:55;;;;;;;45.60;4.22;;;;;;;13.89;100.00;99332.38;5069764;28;20565;-49
2023/03/13 10:52:46;;;;;;;31.55;3.40;;;;;;;13.98;100.00;99304.69;5069544;28;20463;-51
2023/03/13 10:55:16;;;;;;;36.67;4.65;;;;;;;14.04;100.00;99316.44;5069647;28;20028;-49
2023/03/13 10:58:00;;;;;;;35.85;3.72;;;;;;;14.32;100.00;99309.34;5067867;28;20490;-50
2023/03/13 11:00:37;;;;;;;30.52;5.28;;;;;;;14.43;100.00;99284.13;5064674;28;20505;-50
2023/03/13 11:03:22;;;;;;;38.85;4.55;;;;;;;14.47;100.00;99296.06;5068717;28;20135;-50
2023/03/13 11:06:00;;;;;;;38.85;3.90;;;;;;;14.46;100.00;99316.91;5068514;28;20174;-50
2023/03/13 11:08:27;;;;;;;27.80;3.65;;;;;;;14.59;100.00;99302.28;5069881;28;20024;-50
2023/03/13 11:11:01;;;;;;;32.35;4.50;;;;;;;14.71;100.00;99283.22;5069451;28;20443;-49
2023/03/13 11:13:41;;;;;;;33.33;4.30;;;;;;;14.92;100.00;99297.91;5069762;28;20020;-51
2023/03/13 11:16:25;;;;;;;48.75;6.03;;;;;;;14.92;100.00;99306.03;5070042;28;20090;-50
2023/03/13 11:19:12;;;;;;;41.50;5.20;;;;;;;14.98;100.00;99318.59;5069068;28;20115;-50